Shope Gardens, Pennsylvania
Current Conditions -  °F | °C
As of 3:56 PM on Tuesday 21 Oct 2014 (Local Time) from KMDT Reporting Station
Broken Clouds Broken Clouds  
Wind Chill: 63°   Ceiling: 9000
Heat Index: 63°   Visibility: 10mi
Dew Point: 47°   Wind: 5mph
Humidity: 56%   Direction: 350°N
Pressure: 29.81"   Gusts: NA
Location:  40.1873°N, 76.6948°W
Report Text: KMDT 211956Z 35004KT 10SM SCT050TCU BKN090 BKN250 17/08 A2981 RMK AO2 SLP097 TCU NE-E AND DSNT SW T01720083
Loading
Personal Weather Stations






























Interactive Weather Map
Tropical Storm Tracking
New forecast layout! Learn more

10-Day Weather Forecast

Advertisements
Track Severe Weather on mobile